sensor_id;sensor_type;location;lat;lon;timestamp;P1;durP1;ratioP1;P2;durP2;ratioP2
8361;SDS011;4218;48.326;14.304;2023-06-24T00:01:30;43.83;;;41.93;;
8361;SDS011;4218;48.326;14.304;2023-06-24T00:03:56;38.63;;;36.90;;
8361;SDS011;4218;48.326;14.304;2023-06-24T00:06:21;55.60;;;53.17;;
8361;SDS011;4218;48.326;14.304;2023-06-24T00:08:50;46.13;;;43.97;;
8361;SDS011;4218;48.326;14.304;2023-06-24T00:11:15;76.57;;;73.00;;
8361;SDS011;4218;48.326;14.304;2023-06-24T00:13:41;74.30;;;70.97;;
8361;SDS011;4218;48.326;14.304;2023-06-24T00:16:07;61.73;;;58.97;;
8361;SDS011;4218;48.326;14.304;2023-06-24T00:18:32;47.50;;;45.37;;
8361;SDS011;4218;48.326;14.304;2023-06-24T00:20:57;78.33;;;74.77;;
8361;SDS011;4218;48.326;14.304;2023-06-24T00:23:23;66.83;;;63.73;;
8361;SDS011;4218;48.326;14.304;2023-06-24T00:25:51;56.30;;;53.80;;
8361;SDS011;4218;48.326;14.304;2023-06-24T00:28:17;47.37;;;45.23;;
8361;SDS011;4218;48.326;14.304;2023-06-24T00:30:42;46.87;;;44.80;;
8361;SDS011;4218;48.326;14.304;2023-06-24T00:33:07;47.37;;;45.27;;
8361;SDS011;4218;48.326;14.304;2023-06-24T00:35:36;38.00;;;36.30;;
8361;SDS011;4218;48.326;14.304;2023-06-24T00:38:02;43.17;;;41.20;;
8361;SDS011;4218;48.326;14.304;2023-06-24T00:40:27;35.47;;;33.87;;
8361;SDS011;4218;48.326;14.304;2023-06-24T00:42:53;29.23;;;27.93;;
8361;SDS011;4218;48.326;14.304;2023-06-24T00:45:18;46.97;;;44.90;;
8361;SDS011;4218;48.326;14.304;2023-06-24T00:47:44;36.43;;;34.83;;
8361;SDS011;4218;48.326;14.304;2023-06-24T00:50:10;38.60;;;36.90;;
8361;SDS011;4218;48.326;14.304;2023-06-24T00:52:37;36.70;;;35.07;;
8361;SDS011;4218;48.326;14.304;2023-06-24T00:55:04;39.87;;;38.07;;
8361;SDS011;4218;48.326;14.304;2023-06-24T00:57:29;38.10;;;36.33;;
8361;SDS011;4218;48.326;14.304;2023-06-24T00:59:55;34.17;;;32.67;;
8361;SDS011;4218;48.326;14.304;2023-06-24T01:02:21;33.80;;;32.33;;
8361;SDS011;4218;48.326;14.304;2023-06-24T01:04:47;29.13;;;27.83;;
8361;SDS011;4218;48.326;14.304;2023-06-24T01:07:13;22.63;;;21.63;;
8361;SDS011;4218;48.326;14.304;2023-06-24T01:09:39;22.10;;;21.17;;
8361;SDS011;4218;48.326;14.304;2023-06-24T01:12:04;27.93;;;26.73;;
8361;SDS011;4218;48.326;14.304;2023-06-24T01:14:31;26.20;;;25.03;;
8361;SDS011;4218;48.326;14.304;2023-06-24T01:17:03;31.23;;;29.83;;
8361;SDS011;4218;48.326;14.304;2023-06-24T01:19:33;48.37;;;46.20;;
8361;SDS011;4218;48.326;14.304;2023-06-24T01:27:08;26.00;;;24.90;;
8361;SDS011;4218;48.326;14.304;2023-06-24T01:29:41;40.40;;;38.60;;
8361;SDS011;4218;48.326;14.304;2023-06-24T01:32:19;41.77;;;39.90;;
8361;SDS011;4218;48.326;14.304;2023-06-24T01:34:51;52.27;;;49.97;;
8361;SDS011;4218;48.326;14.304;2023-06-24T01:37:24;33.97;;;32.47;;
8361;SDS011;4218;48.326;14.304;2023-06-24T01:39:52;29.07;;;27.80;;
8361;SDS011;4218;48.326;14.304;2023-06-24T01:42:21;32.07;;;30.63;;
8361;SDS011;4218;48.326;14.304;2023-06-24T01:44:47;58.30;;;55.70;;
8361;SDS011;4218;48.326;14.304;2023-06-24T01:47:13;51.20;;;48.93;;
8361;SDS011;4218;48.326;14.304;2023-06-24T01:49:41;55.20;;;52.73;;
8361;SDS011;4218;48.326;14.304;2023-06-24T01:52:07;42.60;;;40.73;;
8361;SDS011;4218;48.326;14.304;2023-06-24T01:54:33;30.87;;;29.53;;
8361;SDS011;4218;48.326;14.304;2023-06-24T01:57:00;23.27;;;22.27;;
8361;SDS011;4218;48.326;14.304;2023-06-24T01:59:28;24.20;;;23.20;;
8361;SDS011;4218;48.326;14.304;2023-06-24T02:01:53;25.00;;;23.90;;
8361;SDS011;4218;48.326;14.304;2023-06-24T02:04:19;20.30;;;19.40;;
8361;SDS011;4218;48.326;14.304;2023-06-24T02:06:45;18.63;;;17.83;;
8361;SDS011;4218;48.326;14.304;2023-06-24T02:09:11;28.87;;;27.57;;
8361;SDS011;4218;48.326;14.304;2023-06-24T02:11:37;24.97;;;23.87;;
8361;SDS011;4218;48.326;14.304;2023-06-24T02:14:03;28.57;;;27.33;;
8361;SDS011;4218;48.326;14.304;2023-06-24T02:16:29;27.27;;;26.07;;
8361;SDS011;4218;48.326;14.304;2023-06-24T02:18:55;22.47;;;21.57;;
8361;SDS011;4218;48.326;14.304;2023-06-24T02:21:21;20.10;;;19.20;;
8361;SDS011;4218;48.326;14.304;2023-06-24T02:23:48;35.57;;;34.00;;
8361;SDS011;4218;48.326;14.304;2023-06-24T02:26:13;44.50;;;42.50;;
8361;SDS011;4218;48.326;14.304;2023-06-24T02:28:39;28.33;;;27.13;;
8361;SDS011;4218;48.326;14.304;2023-06-24T02:31:05;26.70;;;25.33;;
8361;SDS011;4218;48.326;14.304;2023-06-24T02:33:31;21.23;;;20.33;;
8361;SDS011;4218;48.326;14.304;2023-06-24T02:35:56;20.37;;;19.53;;
8361;SDS011;4218;48.326;14.304;2023-06-24T02:38:22;21.53;;;20.60;;
8361;SDS011;4218;48.326;14.304;2023-06-24T02:40:47;23.57;;;22.57;;
8361;SDS011;4218;48.326;14.304;2023-06-24T02:43:13;18.67;;;17.87;;
8361;SDS011;4218;48.326;14.304;2023-06-24T02:45:38;23.00;;;22.03;;
8361;SDS011;4218;48.326;14.304;2023-06-24T02:48:04;18.67;;;17.87;;
8361;SDS011;4218;48.326;14.304;2023-06-24T02:50:29;19.77;;;18.97;;
8361;SDS011;4218;48.326;14.304;2023-06-24T02:52:55;20.70;;;19.80;;
8361;SDS011;4218;48.326;14.304;2023-06-24T02:55:21;25.60;;;24.50;;
8361;SDS011;4218;48.326;14.304;2023-06-24T02:57:46;25.87;;;24.77;;
8361;SDS011;4218;48.326;14.304;2023-06-24T03:00:12;21.00;;;20.07;;
8361;SDS011;4218;48.326;14.304;2023-06-24T03:02:38;27.27;;;26.07;;
8361;SDS011;4218;48.326;14.304;2023-06-24T03:05:03;42.73;;;40.80;;
8361;SDS011;4218;48.326;14.304;2023-06-24T03:07:30;33.47;;;32.00;;
8361;SDS011;4218;48.326;14.304;2023-06-24T03:09:55;21.97;;;21.07;;
8361;SDS011;4218;48.326;14.304;2023-06-24T03:12:21;38.60;;;36.90;;
8361;SDS011;4218;48.326;14.304;2023-06-24T03:14:46;27.97;;;26.73;;
8361;SDS011;4218;48.326;14.304;2023-06-24T03:17:11;36.27;;;34.67;;
8361;SDS011;4218;48.326;14.304;2023-06-24T03:19:36;27.43;;;26.23;;
8361;SDS011;4218;48.326;14.304;2023-06-24T03:22:03;20.70;;;19.80;;
8361;SDS011;4218;48.326;14.304;2023-06-24T03:24:28;22.23;;;21.30;;
8361;SDS011;4218;48.326;14.304;2023-06-24T03:26:54;31.93;;;30.53;;
8361;SDS011;4218;48.326;14.304;2023-06-24T03:29:22;30.70;;;29.30;;
8361;SDS011;4218;48.326;14.304;2023-06-24T03:31:47;20.83;;;19.93;;
8361;SDS011;4218;48.326;14.304;2023-06-24T03:34:13;30.80;;;29.43;;
8361;SDS011;4218;48.326;14.304;2023-06-24T03:36:38;31.07;;;29.73;;
8361;SDS011;4218;48.326;14.304;2023-06-24T03:39:04;37.57;;;35.93;;
8361;SDS011;4218;48.326;14.304;2023-06-24T03:41:29;39.83;;;38.03;;
8361;SDS011;4218;48.326;14.304;2023-06-24T03:43:54;31.27;;;29.87;;
8361;SDS011;4218;48.326;14.304;2023-06-24T03:46:20;22.27;;;21.27;;
8361;SDS011;4218;48.326;14.304;2023-06-24T03:48:45;32.07;;;30.40;;
8361;SDS011;4218;48.326;14.304;2023-06-24T03:51:11;35.77;;;34.17;;
8361;SDS011;4218;48.326;14.304;2023-06-24T03:53:36;50.90;;;48.63;;
8361;SDS011;4218;48.326;14.304;2023-06-24T03:56:02;32.40;;;30.97;;
8361;SDS011;4218;48.326;14.304;2023-06-24T03:58:27;25.97;;;24.87;;
8361;SDS011;4218;48.326;14.304;2023-06-24T04:00:52;24.17;;;23.07;;
8361;SDS011;4218;48.326;14.304;2023-06-24T04:03:21;23.23;;;22.13;;
8361;SDS011;4218;48.326;14.304;2023-06-24T04:05:46;30.20;;;28.83;;
8361;SDS011;4218;48.326;14.304;2023-06-24T04:08:11;31.23;;;29.83;;
8361;SDS011;4218;48.326;14.304;2023-06-24T04:10:37;28.57;;;27.33;;
8361;SDS011;4218;48.326;14.304;2023-06-24T04:13:02;20.53;;;19.53;;
8361;SDS011;4218;48.326;14.304;2023-06-24T04:15:27;21.17;;;20.23;;
8361;SDS011;4218;48.326;14.304;2023-06-24T04:17:52;20.37;;;19.47;;
8361;SDS011;4218;48.326;14.304;2023-06-24T04:20:17;24.33;;;23.20;;
8361;SDS011;4218;48.326;14.304;2023-06-24T04:22:43;42.63;;;40.70;;
8361;SDS011;4218;48.326;14.304;2023-06-24T04:25:08;40.73;;;38.83;;
8361;SDS011;4218;48.326;14.304;2023-06-24T04:27:33;23.60;;;22.00;;
8361;SDS011;4218;48.326;14.304;2023-06-24T04:29:59;25.80;;;24.63;;
8361;SDS011;4218;48.326;14.304;2023-06-24T04:32:25;19.10;;;18.30;;
8361;SDS011;4218;48.326;14.304;2023-06-24T04:34:50;22.57;;;21.43;;
8361;SDS011;4218;48.326;14.304;2023-06-24T04:37:15;21.10;;;20.20;;
8361;SDS011;4218;48.326;14.304;2023-06-24T04:39:41;20.40;;;19.50;;
8361;SDS011;4218;48.326;14.304;2023-06-24T04:42:06;30.27;;;28.87;;
8361;SDS011;4218;48.326;14.304;2023-06-24T04:44:32;26.90;;;25.70;;
8361;SDS011;4218;48.326;14.304;2023-06-24T04:46:57;31.33;;;29.93;;
8361;SDS011;4218;48.326;14.304;2023-06-24T04:49:22;29.67;;;28.30;;
8361;SDS011;4218;48.326;14.304;2023-06-24T04:51:47;26.30;;;25.13;;
8361;SDS011;4218;48.326;14.304;2023-06-24T04:54:13;19.47;;;18.57;;
8361;SDS011;4218;48.326;14.304;2023-06-24T04:56:39;24.87;;;23.70;;
8361;SDS011;4218;48.326;14.304;2023-06-24T04:59:04;22.37;;;21.37;;
8361;SDS011;4218;48.326;14.304;2023-06-24T05:01:29;26.57;;;25.33;;
8361;SDS011;4218;48.326;14.304;2023-06-24T05:03:54;24.67;;;23.57;;
8361;SDS011;4218;48.326;14.304;2023-06-24T05:06:20;26.97;;;25.77;;
8361;SDS011;4218;48.326;14.304;2023-06-24T05:08:45;27.23;;;26.03;;
8361;SDS011;4218;48.326;14.304;2023-06-24T05:11:10;25.63;;;24.50;;
8361;SDS011;4218;48.326;14.304;2023-06-24T05:13:37;23.63;;;22.60;;
8361;SDS011;4218;48.326;14.304;2023-06-24T05:16:02;27.40;;;26.20;;
8361;SDS011;4218;48.326;14.304;2023-06-24T05:18:27;31.37;;;29.97;;
8361;SDS011;4218;48.326;14.304;2023-06-24T05:20:52;29.33;;;28.00;;
8361;SDS011;4218;48.326;14.304;2023-06-24T05:23:18;26.80;;;25.60;;
8361;SDS011;4218;48.326;14.304;2023-06-24T05:25:43;25.13;;;24.03;;
8361;SDS011;4218;48.326;14.304;2023-06-24T05:28:08;29.50;;;28.20;;
8361;SDS011;4218;48.326;14.304;2023-06-24T05:30:33;20.50;;;19.63;;
8361;SDS011;4218;48.326;14.304;2023-06-24T05:32:59;25.43;;;24.33;;
8361;SDS011;4218;48.326;14.304;2023-06-24T05:35:24;23.73;;;22.70;;
8361;SDS011;4218;48.326;14.304;2023-06-24T05:37:49;26.47;;;25.27;;
8361;SDS011;4218;48.326;14.304;2023-06-24T05:40:14;27.50;;;26.30;;
8361;SDS011;4218;48.326;14.304;2023-06-24T05:42:39;22.27;;;21.27;;
8361;SDS011;4218;48.326;14.304;2023-06-24T05:45:05;27.57;;;26.37;;
8361;SDS011;4218;48.326;14.304;2023-06-24T05:47:31;19.30;;;18.47;;
8361;SDS011;4218;48.326;14.304;2023-06-24T05:49:56;21.30;;;20.40;;
8361;SDS011;4218;48.326;14.304;2023-06-24T05:52:22;19.83;;;18.83;;
8361;SDS011;4218;48.326;14.304;2023-06-24T05:54:47;23.27;;;22.23;;
8361;SDS011;4218;48.326;14.304;2023-06-24T05:57:12;23.20;;;22.20;;
8361;SDS011;4218;48.326;14.304;2023-06-24T05:59:37;30.17;;;28.70;;
8361;SDS011;4218;48.326;14.304;2023-06-24T06:02:03;27.90;;;26.43;;
8361;SDS011;4218;48.326;14.304;2023-06-24T06:04:28;31.80;;;30.37;;
8361;SDS011;4218;48.326;14.304;2023-06-24T06:06:53;30.40;;;29.03;;
8361;SDS011;4218;48.326;14.304;2023-06-24T06:09:20;25.83;;;24.73;;
8361;SDS011;4218;48.326;14.304;2023-06-24T06:11:45;23.63;;;22.37;;
8361;SDS011;4218;48.326;14.304;2023-06-24T06:14:10;60.77;;;58.07;;
8361;SDS011;4218;48.326;14.304;2023-06-24T06:16:36;95.33;;;90.93;;
8361;SDS011;4218;48.326;14.304;2023-06-24T06:19:01;35.67;;;34.07;;
8361;SDS011;4218;48.326;14.304;2023-06-24T06:21:26;34.83;;;33.23;;
8361;SDS011;4218;48.326;14.304;2023-06-24T06:23:51;32.57;;;31.07;;
8361;SDS011;4218;48.326;14.304;2023-06-24T06:26:16;23.30;;;22.20;;
8361;SDS011;4218;48.326;14.304;2023-06-24T06:28:42;47.93;;;45.73;;
8361;SDS011;4218;48.326;14.304;2023-06-24T06:31:07;42.50;;;40.47;;
8361;SDS011;4218;48.326;14.304;2023-06-24T06:33:33;38.00;;;36.20;;
8361;SDS011;4218;48.326;14.304;2023-06-24T06:35:58;49.90;;;47.57;;
8361;SDS011;4218;48.326;14.304;2023-06-24T06:38:23;41.63;;;39.77;;
8361;SDS011;4218;48.326;14.304;2023-06-24T06:40:49;45.20;;;43.07;;
8361;SDS011;4218;48.326;14.304;2023-06-24T06:43:14;66.50;;;63.40;;
8361;SDS011;4218;48.326;14.304;2023-06-24T06:45:39;82.27;;;78.27;;
8361;SDS011;4218;48.326;14.304;2023-06-24T06:48:05;118.97;;;113.37;;
8361;SDS011;4218;48.326;14.304;2023-06-24T06:50:32;56.07;;;53.37;;
8361;SDS011;4218;48.326;14.304;2023-06-24T06:52:57;202.33;;;192.67;;
8361;SDS011;4218;48.326;14.304;2023-06-24T06:55:22;99.70;;;95.10;;
8361;SDS011;4218;48.326;14.304;2023-06-24T06:57:48;173.57;;;165.67;;
8361;SDS011;4218;48.326;14.304;2023-06-24T07:00:13;94.10;;;89.57;;
8361;SDS011;4218;48.326;14.304;2023-06-24T07:02:38;112.20;;;107.00;;
8361;SDS011;4218;48.326;14.304;2023-06-24T07:05:04;78.23;;;74.53;;
8361;SDS011;4218;48.326;14.304;2023-06-24T07:07:29;111.83;;;106.77;;
8361;SDS011;4218;48.326;14.304;2023-06-24T07:09:54;188.80;;;179.50;;
8361;SDS011;4218;48.326;14.304;2023-06-24T07:12:19;145.93;;;138.87;;
8361;SDS011;4218;48.326;14.304;2023-06-24T07:14:46;149.43;;;142.53;;
8361;SDS011;4218;48.326;14.304;2023-06-24T07:17:11;197.30;;;188.07;;
8361;SDS011;4218;48.326;14.304;2023-06-24T07:19:36;132.50;;;126.37;;
8361;SDS011;4218;48.326;14.304;2023-06-24T07:22:01;95.50;;;91.00;;
8361;SDS011;4218;48.326;14.304;2023-06-24T07:24:26;106.37;;;101.43;;
8361;SDS011;4218;48.326;14.304;2023-06-24T07:26:52;124.17;;;118.20;;
8361;SDS011;4218;48.326;14.304;2023-06-24T07:29:17;120.83;;;115.27;;
8361;SDS011;4218;48.326;14.304;2023-06-24T07:31:42;63.13;;;60.13;;
8361;SDS011;4218;48.326;14.304;2023-06-24T07:34:07;44.13;;;41.97;;
8361;SDS011;4218;48.326;14.304;2023-06-24T07:36:33;46.57;;;44.37;;
8361;SDS011;4218;48.326;14.304;2023-06-24T07:38:58;38.60;;;36.70;;
8361;SDS011;4218;48.326;14.304;2023-06-24T07:41:23;110.87;;;105.77;;
8361;SDS011;4218;48.326;14.304;2023-06-24T07:43:48;75.57;;;72.17;;
8361;SDS011;4218;48.326;14.304;2023-06-24T07:46:14;93.17;;;88.93;;
8361;SDS011;4218;48.326;14.304;2023-06-24T07:48:39;38.93;;;36.97;;
8361;SDS011;4218;48.326;14.304;2023-06-24T07:51:04;37.93;;;36.07;;
8361;SDS011;4218;48.326;14.304;2023-06-24T07:53:29;54.47;;;51.90;;
8361;SDS011;4218;48.326;14.304;2023-06-24T07:55:55;57.83;;;54.97;;
8361;SDS011;4218;48.326;14.304;2023-06-24T07:58:20;37.73;;;35.93;;
8361;SDS011;4218;48.326;14.304;2023-06-24T08:00:45;46.53;;;44.17;;
8361;SDS011;4218;48.326;14.304;2023-06-24T08:03:11;34.00;;;32.40;;
8361;SDS011;4218;48.326;14.304;2023-06-24T08:05:36;38.73;;;36.83;;
8361;SDS011;4218;48.326;14.304;2023-06-24T08:08:03;41.43;;;39.50;;
8361;SDS011;4218;48.326;14.304;2023-06-24T08:10:29;58.73;;;55.87;;
8361;SDS011;4218;48.326;14.304;2023-06-24T08:12:54;48.37;;;46.03;;
8361;SDS011;4218;48.326;14.304;2023-06-24T08:15:20;26.40;;;25.17;;
8361;SDS011;4218;48.326;14.304;2023-06-24T08:17:50;78.93;;;75.33;;
8361;SDS011;4218;48.326;14.304;2023-06-24T08:20:15;49.53;;;47.13;;
8361;SDS011;4218;48.326;14.304;2023-06-24T08:22:40;60.70;;;57.90;;
8361;SDS011;4218;48.326;14.304;2023-06-24T08:25:06;37.30;;;35.50;;
8361;SDS011;4218;48.326;14.304;2023-06-24T08:27:31;72.63;;;69.23;;
8361;SDS011;4218;48.326;14.304;2023-06-24T08:29:56;51.27;;;48.83;;
8361;SDS011;4218;48.326;14.304;2023-06-24T08:32:21;91.23;;;87.07;;
8361;SDS011;4218;48.326;14.304;2023-06-24T08:34:47;66.43;;;63.30;;
8361;SDS011;4218;48.326;14.304;2023-06-24T08:37:12;70.13;;;66.87;;
8361;SDS011;4218;48.326;14.304;2023-06-24T08:39:37;34.87;;;33.27;;
8361;SDS011;4218;48.326;14.304;2023-06-24T08:42:03;34.27;;;32.67;;
8361;SDS011;4218;48.326;14.304;2023-06-24T08:44:29;55.17;;;52.63;;
8361;SDS011;4218;48.326;14.304;2023-06-24T08:46:54;32.17;;;30.47;;
8361;SDS011;4218;48.326;14.304;2023-06-24T08:49:25;36.67;;;35.00;;
8361;SDS011;4218;48.326;14.304;2023-06-24T08:54:23;45.80;;;43.67;;
8361;SDS011;4218;48.326;14.304;2023-06-24T08:56:49;48.93;;;46.53;;
8361;SDS011;4218;48.326;14.304;2023-06-24T08:59:14;39.03;;;37.20;;
8361;SDS011;4218;48.326;14.304;2023-06-24T09:01:44;34.60;;;33.00;;
8361;SDS011;4218;48.326;14.304;2023-06-24T09:04:09;56.20;;;53.63;;
8361;SDS011;4218;48.326;14.304;2023-06-24T09:06:35;52.17;;;49.67;;
8361;SDS011;4218;48.326;14.304;2023-06-24T09:09:00;41.57;;;39.60;;
8361;SDS011;4218;48.326;14.304;2023-06-24T09:11:25;27.27;;;25.93;;
8361;SDS011;4218;48.326;14.304;2023-06-24T09:13:55;56.33;;;53.67;;
8361;SDS011;4218;48.326;14.304;2023-06-24T09:16:21;39.17;;;37.27;;
8361;SDS011;4218;48.326;14.304;2023-06-24T09:18:50;42.27;;;40.27;;
8361;SDS011;4218;48.326;14.304;2023-06-24T09:21:25;34.33;;;32.70;;
8361;SDS011;4218;48.326;14.304;2023-06-24T09:23:52;27.53;;;26.23;;
8361;SDS011;4218;48.326;14.304;2023-06-24T09:26:17;50.83;;;48.43;;
8361;SDS011;4218;48.326;14.304;2023-06-24T09:28:46;28.70;;;27.33;;
8361;SDS011;4218;48.326;14.304;2023-06-24T09:31:12;23.90;;;22.80;;
8361;SDS011;4218;48.326;14.304;2023-06-24T09:33:37;27.80;;;26.40;;
8361;SDS011;4218;48.326;14.304;2023-06-24T09:36:04;19.77;;;18.77;;
8361;SDS011;4218;48.326;14.304;2023-06-24T09:38:33;22.87;;;21.80;;
8361;SDS011;4218;48.326;14.304;2023-06-24T09:41:03;25.63;;;24.33;;
8361;SDS011;4218;48.326;14.304;2023-06-24T09:43:34;21.60;;;20.57;;
8361;SDS011;4218;48.326;14.304;2023-06-24T09:46:01;18.13;;;17.23;;
8361;SDS011;4218;48.326;14.304;2023-06-24T09:48:26;18.80;;;17.90;;
8361;SDS011;4218;48.326;14.304;2023-06-24T09:50:51;21.33;;;20.33;;
8361;SDS011;4218;48.326;14.304;2023-06-24T09:53:17;25.50;;;24.17;;
8361;SDS011;4218;48.326;14.304;2023-06-24T09:55:42;20.03;;;19.13;;
8361;SDS011;4218;48.326;14.304;2023-06-24T09:58:11;24.73;;;23.63;;
8361;SDS011;4218;48.326;14.304;2023-06-24T10:00:36;36.60;;;34.87;;
8361;SDS011;4218;48.326;14.304;2023-06-24T10:03:02;19.57;;;18.67;;
8361;SDS011;4218;48.326;14.304;2023-06-24T10:05:27;34.00;;;32.43;;
8361;SDS011;4218;48.326;14.304;2023-06-24T10:07:52;32.93;;;31.40;;
8361;SDS011;4218;48.326;14.304;2023-06-24T10:10:18;40.80;;;38.93;;
8361;SDS011;4218;48.326;14.304;2023-06-24T10:12:43;32.27;;;30.70;;
8361;SDS011;4218;48.326;14.304;2023-06-24T10:15:09;40.47;;;38.57;;
8361;SDS011;4218;48.326;14.304;2023-06-24T10:17:34;26.60;;;25.30;;
8361;SDS011;4218;48.326;14.304;2023-06-24T10:20:03;23.63;;;22.43;;
8361;SDS011;4218;48.326;14.304;2023-06-24T10:22:29;35.80;;;34.03;;
8361;SDS011;4218;48.326;14.304;2023-06-24T10:24:54;70.10;;;66.83;;
8361;SDS011;4218;48.326;14.304;2023-06-24T10:27:24;40.37;;;38.43;;
8361;SDS011;4218;48.326;14.304;2023-06-24T10:29:53;42.27;;;40.13;;
8361;SDS011;4218;48.326;14.304;2023-06-24T10:32:22;30.77;;;29.20;;
8361;SDS011;4218;48.326;14.304;2023-06-24T10:34:47;29.10;;;27.47;;
8361;SDS011;4218;48.326;14.304;2023-06-24T10:44:44;51.87;;;49.20;;
8361;SDS011;4218;48.326;14.304;2023-06-24T10:47:09;60.47;;;57.50;;
8361;SDS011;4218;48.326;14.304;2023-06-24T10:49:35;43.97;;;41.83;;
8361;SDS011;4218;48.326;14.304;2023-06-24T10:52:00;75.23;;;71.73;;
8361;SDS011;4218;48.326;14.304;2023-06-24T10:54:25;72.77;;;69.17;;
8361;SDS011;4218;48.326;14.304;2023-06-24T10:56:52;90.77;;;86.60;;
8361;SDS011;4218;48.326;14.304;2023-06-24T10:59:18;89.10;;;84.83;;
8361;SDS011;4218;48.326;14.304;2023-06-24T11:01:52;38.37;;;36.53;;
8361;SDS011;4218;48.326;14.304;2023-06-24T11:04:19;39.37;;;37.47;;
8361;SDS011;4218;48.326;14.304;2023-06-24T11:07:00;54.17;;;51.63;;
8361;SDS011;4218;48.326;14.304;2023-06-24T11:09:25;51.97;;;49.53;;
8361;SDS011;4218;48.326;14.304;2023-06-24T11:11:51;26.07;;;24.77;;
8361;SDS011;4218;48.326;14.304;2023-06-24T11:14:17;27.37;;;25.80;;
8361;SDS011;4218;48.326;14.304;2023-06-24T11:16:42;37.37;;;35.50;;
8361;SDS011;4218;48.326;14.304;2023-06-24T11:19:08;31.27;;;29.67;;
8361;SDS011;4218;48.326;14.304;2023-06-24T11:21:33;26.03;;;24.73;;
8361;SDS011;4218;48.326;14.304;2023-06-24T11:24:02;23.90;;;22.70;;
8361;SDS011;4218;48.326;14.304;2023-06-24T11:26:27;43.07;;;40.97;;
8361;SDS011;4218;48.326;14.304;2023-06-24T11:28:52;46.33;;;44.10;;
8361;SDS011;4218;48.326;14.304;2023-06-24T11:31:18;53.87;;;51.27;;
8361;SDS011;4218;48.326;14.304;2023-06-24T11:33:47;25.13;;;23.93;;
8361;SDS011;4218;48.326;14.304;2023-06-24T11:36:13;31.50;;;30.00;;
8361;SDS011;4218;48.326;14.304;2023-06-24T11:38:41;28.83;;;27.53;;
8361;SDS011;4218;48.326;14.304;2023-06-24T11:41:06;19.93;;;18.97;;
8361;SDS011;4218;48.326;14.304;2023-06-24T11:43:32;22.63;;;21.63;;
8361;SDS011;4218;48.326;14.304;2023-06-24T11:45:58;21.70;;;20.67;;
8361;SDS011;4218;48.326;14.304;2023-06-24T11:48:27;36.60;;;34.77;;
8361;SDS011;4218;48.326;14.304;2023-06-24T11:50:55;33.87;;;32.27;;
8361;SDS011;4218;48.326;14.304;2023-06-24T11:53:30;44.50;;;42.40;;
8361;SDS011;4218;48.326;14.304;2023-06-24T11:55:56;65.50;;;62.40;;
8361;SDS011;4218;48.326;14.304;2023-06-24T11:58:21;59.37;;;56.57;;
8361;SDS011;4218;48.326;14.304;2023-06-24T12:00:48;41.70;;;39.70;;
8361;SDS011;4218;48.326;14.304;2023-06-24T12:03:13;27.13;;;25.77;;
8361;SDS011;4218;48.326;14.304;2023-06-24T12:05:39;20.53;;;19.53;;
8361;SDS011;4218;48.326;14.304;2023-06-24T12:08:10;39.10;;;37.23;;
8361;SDS011;4218;48.326;14.304;2023-06-24T12:10:36;45.80;;;43.63;;
8361;SDS011;4218;48.326;14.304;2023-06-24T12:13:03;34.53;;;32.83;;
8361;SDS011;4218;48.326;14.304;2023-06-24T12:15:28;32.13;;;30.43;;
8361;SDS011;4218;48.326;14.304;2023-06-24T12:17:54;47.97;;;45.70;;
8361;SDS011;4218;48.326;14.304;2023-06-24T12:20:19;26.40;;;25.10;;
8361;SDS011;4218;48.326;14.304;2023-06-24T12:22:47;24.60;;;23.50;;
8361;SDS011;4218;48.326;14.304;2023-06-24T12:25:12;27.37;;;26.10;;
8361;SDS011;4218;48.326;14.304;2023-06-24T12:27:38;32.03;;;30.50;;
8361;SDS011;4218;48.326;14.304;2023-06-24T12:30:03;27.23;;;25.93;;
8361;SDS011;4218;48.326;14.304;2023-06-24T12:32:29;25.77;;;24.53;;
8361;SDS011;4218;48.326;14.304;2023-06-24T12:34:54;33.60;;;32.03;;
8361;SDS011;4218;48.326;14.304;2023-06-24T12:37:19;25.80;;;24.50;;
8361;SDS011;4218;48.326;14.304;2023-06-24T12:39:44;37.33;;;35.30;;
8361;SDS011;4218;48.326;14.304;2023-06-24T12:42:10;27.23;;;25.87;;
8361;SDS011;4218;48.326;14.304;2023-06-24T12:44:35;29.50;;;28.03;;
8361;SDS011;4218;48.326;14.304;2023-06-24T12:47:00;26.00;;;24.70;;
8361;SDS011;4218;48.326;14.304;2023-06-24T12:49:25;31.77;;;30.17;;
8361;SDS011;4218;48.326;14.304;2023-06-24T12:51:51;25.40;;;24.20;;
8361;SDS011;4218;48.326;14.304;2023-06-24T12:54:17;28.93;;;27.63;;
8361;SDS011;4218;48.326;14.304;2023-06-24T12:56:42;29.17;;;27.77;;
8361;SDS011;4218;48.326;14.304;2023-06-24T12:59:08;28.73;;;27.37;;
8361;SDS011;4218;48.326;14.304;2023-06-24T13:01:33;28.27;;;26.87;;
8361;SDS011;4218;48.326;14.304;2023-06-24T13:03:58;38.07;;;36.23;;
8361;SDS011;4218;48.326;14.304;2023-06-24T13:06:24;34.73;;;32.83;;
8361;SDS011;4218;48.326;14.304;2023-06-24T13:08:49;43.40;;;41.33;;
8361;SDS011;4218;48.326;14.304;2023-06-24T13:11:14;39.20;;;37.30;;
8361;SDS011;4218;48.326;14.304;2023-06-24T13:13:40;38.77;;;36.90;;
8361;SDS011;4218;48.326;14.304;2023-06-24T13:16:05;31.77;;;30.27;;
8361;SDS011;4218;48.326;14.304;2023-06-24T13:18:30;29.03;;;27.63;;
8361;SDS011;4218;48.326;14.304;2023-06-24T13:20:55;24.03;;;22.83;;
8361;SDS011;4218;48.326;14.304;2023-06-24T13:23:20;26.73;;;25.47;;
8361;SDS011;4218;48.326;14.304;2023-06-24T13:25:46;30.50;;;29.00;;
8361;SDS011;4218;48.326;14.304;2023-06-24T13:28:12;21.53;;;20.53;;
8361;SDS011;4218;48.326;14.304;2023-06-24T13:30:37;32.77;;;31.17;;
8361;SDS011;4218;48.326;14.304;2023-06-24T13:33:02;30.50;;;29.03;;
8361;SDS011;4218;48.326;14.304;2023-06-24T13:35:27;28.97;;;27.57;;
8361;SDS011;4218;48.326;14.304;2023-06-24T13:37:53;28.27;;;26.77;;
8361;SDS011;4218;48.326;14.304;2023-06-24T13:40:18;26.73;;;25.43;;
8361;SDS011;4218;48.326;14.304;2023-06-24T13:42:43;52.40;;;49.90;;
8361;SDS011;4218;48.326;14.304;2023-06-24T13:45:08;28.63;;;27.30;;
8361;SDS011;4218;48.326;14.304;2023-06-24T13:47:34;27.73;;;26.40;;
8361;SDS011;4218;48.326;14.304;2023-06-24T13:49:59;34.20;;;32.43;;
8361;SDS011;4218;48.326;14.304;2023-06-24T13:52:27;26.73;;;25.47;;
8361;SDS011;4218;48.326;14.304;2023-06-24T13:54:53;22.30;;;21.30;;
8361;SDS011;4218;48.326;14.304;2023-06-24T13:57:18;25.33;;;24.17;;
8361;SDS011;4218;48.326;14.304;2023-06-24T13:59:43;21.90;;;20.90;;
8361;SDS011;4218;48.326;14.304;2023-06-24T14:02:09;23.77;;;22.67;;
8361;SDS011;4218;48.326;14.304;2023-06-24T14:04:34;23.07;;;22.00;;
8361;SDS011;4218;48.326;14.304;2023-06-24T14:07:00;23.23;;;22.13;;
8361;SDS011;4218;48.326;14.304;2023-06-24T14:09:25;30.17;;;28.77;;
8361;SDS011;4218;48.326;14.304;2023-06-24T14:11:50;31.80;;;30.30;;
8361;SDS011;4218;48.326;14.304;2023-06-24T14:14:16;28.07;;;26.70;;
8361;SDS011;4218;48.326;14.304;2023-06-24T14:16:42;27.03;;;25.83;;
8361;SDS011;4218;48.326;14.304;2023-06-24T14:19:07;30.70;;;29.20;;
8361;SDS011;4218;48.326;14.304;2023-06-24T14:21:32;22.63;;;21.33;;
8361;SDS011;4218;48.326;14.304;2023-06-24T14:23:58;27.27;;;26.00;;
8361;SDS011;4218;48.326;14.304;2023-06-24T14:26:23;26.57;;;25.27;;
8361;SDS011;4218;48.326;14.304;2023-06-24T14:28:48;23.37;;;22.30;;
8361;SDS011;4218;48.326;14.304;2023-06-24T14:31:14;26.77;;;25.50;;
8361;SDS011;4218;48.326;14.304;2023-06-24T14:33:39;21.07;;;20.13;;
8361;SDS011;4218;48.326;14.304;2023-06-24T14:36:04;25.00;;;23.80;;
8361;SDS011;4218;48.326;14.304;2023-06-24T14:38:29;22.13;;;21.13;;
8361;SDS011;4218;48.326;14.304;2023-06-24T14:40:54;20.07;;;19.17;;